sensor_id;sensor_type;location;lat;lon;timestamp;pressure;altitude;pressure_sealevel;temperature;humidity
76126;BME280;65174;48.138;21.002;2023-03-22T00:00:46;99304.81;;;7.96;75.25
76126;BME280;65174;48.138;21.002;2023-03-22T00:03:50;99302.47;;;8.07;74.71
76126;BME280;65174;48.138;21.002;2023-03-22T00:06:52;99313.25;;;7.98;75.16
76126;BME280;65174;48.138;21.002;2023-03-22T00:09:54;99301.50;;;7.94;75.06
76126;BME280;65174;48.138;21.002;2023-03-22T00:12:56;99297.78;;;7.84;75.57
76126;BME280;65174;48.138;21.002;2023-03-22T00:15:58;99303.34;;;7.76;75.86
76126;BME280;65174;48.138;21.002;2023-03-22T00:19:03;99299.50;;;7.83;75.60
76126;BME280;65174;48.138;21.002;2023-03-22T00:22:05;99303.75;;;8.00;74.59
76126;BME280;65174;48.138;21.002;2023-03-22T00:25:09;99301.97;;;8.16;74.47
76126;BME280;65174;48.138;21.002;2023-03-22T00:28:13;99292.03;;;8.10;74.22
76126;BME280;65174;48.138;21.002;2023-03-22T00:31:15;99296.94;;;7.99;74.66
76126;BME280;65174;48.138;21.002;2023-03-22T00:34:18;99293.78;;;7.94;75.20
76126;BME280;65174;48.138;21.002;2023-03-22T00:37:21;99292.53;;;8.17;74.23
76126;BME280;65174;48.138;21.002;2023-03-22T00:40:23;99285.47;;;8.04;73.90
76126;BME280;65174;48.138;21.002;2023-03-22T00:43:25;99299.16;;;8.05;73.96
76126;BME280;65174;48.138;21.002;2023-03-22T00:46:27;99292.53;;;8.17;73.59
76126;BME280;65174;48.138;21.002;2023-03-22T00:49:29;99298.38;;;8.34;72.64
76126;BME280;65174;48.138;21.002;2023-03-22T00:52:32;99293.84;;;8.53;72.29
76126;BME280;65174;48.138;21.002;2023-03-22T00:55:34;99297.22;;;8.40;73.15
76126;BME280;65174;48.138;21.002;2023-03-22T00:58:37;99290.03;;;8.31;73.60
76126;BME280;65174;48.138;21.002;2023-03-22T01:01:40;99285.44;;;8.36;73.85
76126;BME280;65174;48.138;21.002;2023-03-22T01:04:43;99282.69;;;8.39;73.22
76126;BME280;65174;48.138;21.002;2023-03-22T01:07:49;99283.06;;;8.33;74.02
76126;BME280;65174;48.138;21.002;2023-03-22T01:10:55;99287.47;;;8.45;73.49
76126;BME280;65174;48.138;21.002;2023-03-22T01:13:57;99279.31;;;8.23;73.95
76126;BME280;65174;48.138;21.002;2023-03-22T01:17:00;99280.09;;;8.09;74.94
76126;BME280;65174;48.138;21.002;2023-03-22T01:20:02;99282.00;;;8.06;74.89
76126;BME280;65174;48.138;21.002;2023-03-22T01:23:05;99279.09;;;8.27;74.18
76126;BME280;65174;48.138;21.002;2023-03-22T01:26:07;99286.34;;;8.19;74.66
76126;BME280;65174;48.138;21.002;2023-03-22T01:29:10;99290.13;;;8.14;74.85
76126;BME280;65174;48.138;21.002;2023-03-22T01:32:13;99279.38;;;8.21;74.28
76126;BME280;65174;48.138;21.002;2023-03-22T01:35:15;99290.59;;;8.20;74.54
76126;BME280;65174;48.138;21.002;2023-03-22T01:38:18;99296.53;;;8.36;73.14
76126;BME280;65174;48.138;21.002;2023-03-22T01:41:28;99288.53;;;8.56;72.45
76126;BME280;65174;48.138;21.002;2023-03-22T01:44:31;99273.53;;;8.49;72.32
76126;BME280;65174;48.138;21.002;2023-03-22T01:47:35;99271.75;;;8.65;71.74
76126;BME280;65174;48.138;21.002;2023-03-22T01:50:39;99276.94;;;8.63;71.52
76126;BME280;65174;48.138;21.002;2023-03-22T01:53:47;99274.31;;;8.65;71.63
76126;BME280;65174;48.138;21.002;2023-03-22T01:56:52;99260.19;;;8.42;72.64
76126;BME280;65174;48.138;21.002;2023-03-22T02:00:06;99262.25;;;8.51;72.59
76126;BME280;65174;48.138;21.002;2023-03-22T02:03:25;99263.88;;;8.38;73.16
76126;BME280;65174;48.138;21.002;2023-03-22T02:06:32;99260.84;;;8.16;73.32
76126;BME280;65174;48.138;21.002;2023-03-22T02:09:52;99256.41;;;8.34;72.89
76126;BME280;65174;48.138;21.002;2023-03-22T02:16:32;99260.28;;;8.11;73.54
76126;BME280;65174;48.138;21.002;2023-03-22T02:23:47;99268.81;;;8.12;73.49
76126;BME280;65174;48.138;21.002;2023-03-22T02:52:49;99282.25;;;8.17;73.35
76126;BME280;65174;48.138;21.002;2023-03-22T02:59:02;99281.31;;;7.57;75.28
76126;BME280;65174;48.138;21.002;2023-03-22T03:02:07;99279.72;;;7.54;75.67
76126;BME280;65174;48.138;21.002;2023-03-22T03:05:12;99286.03;;;7.49;75.75
76126;BME280;65174;48.138;21.002;2023-03-22T03:08:16;99283.13;;;7.23;76.45
76126;BME280;65174;48.138;21.002;2023-03-22T03:11:21;99280.06;;;7.17;76.92
76126;BME280;65174;48.138;21.002;2023-03-22T03:14:26;99279.50;;;7.28;76.42
76126;BME280;65174;48.138;21.002;2023-03-22T03:24:16;99273.22;;;7.49;75.50
76126;BME280;65174;48.138;21.002;2023-03-22T03:27:24;99282.06;;;7.59;74.89
76126;BME280;65174;48.138;21.002;2023-03-22T03:30:46;99289.94;;;7.40;75.79
76126;BME280;65174;48.138;21.002;2023-03-22T03:33:57;99295.91;;;7.08;76.90
76126;BME280;65174;48.138;21.002;2023-03-22T03:37:17;99288.88;;;6.79;78.01
76126;BME280;65174;48.138;21.002;2023-03-22T03:40:29;99301.97;;;6.74;79.06
76126;BME280;65174;48.138;21.002;2023-03-22T03:43:33;99294.03;;;6.79;79.57
76126;BME280;65174;48.138;21.002;2023-03-22T03:46:35;99293.22;;;6.78;79.88
76126;BME280;65174;48.138;21.002;2023-03-22T03:49:38;99293.25;;;6.94;78.77
76126;BME280;65174;48.138;21.002;2023-03-22T03:52:41;99283.69;;;6.97;78.41
76126;BME280;65174;48.138;21.002;2023-03-22T03:55:43;99294.00;;;7.29;77.52
76126;BME280;65174;48.138;21.002;2023-03-22T03:58:47;99274.88;;;7.50;76.90
76126;BME280;65174;48.138;21.002;2023-03-22T04:01:49;99276.09;;;7.74;75.83
76126;BME280;65174;48.138;21.002;2023-03-22T04:05:01;99292.84;;;7.81;75.34
76126;BME280;65174;48.138;21.002;2023-03-22T04:08:04;99284.38;;;7.79;75.59
76126;BME280;65174;48.138;21.002;2023-03-22T04:11:07;99295.47;;;7.79;74.88
76126;BME280;65174;48.138;21.002;2023-03-22T04:14:09;99288.28;;;7.70;75.19
76126;BME280;65174;48.138;21.002;2023-03-22T04:17:12;99298.69;;;7.67;75.72
76126;BME280;65174;48.138;21.002;2023-03-22T04:20:14;99297.88;;;7.67;75.37
76126;BME280;65174;48.138;21.002;2023-03-22T04:23:16;99302.59;;;7.43;76.23
76126;BME280;65174;48.138;21.002;2023-03-22T04:26:20;99298.59;;;7.22;76.78
76126;BME280;65174;48.138;21.002;2023-03-22T04:29:48;99290.72;;;7.09;77.17
76126;BME280;65174;48.138;21.002;2023-03-22T04:33:12;99281.25;;;6.94;77.57
76126;BME280;65174;48.138;21.002;2023-03-22T04:36:35;99288.69;;;7.16;77.61
76126;BME280;65174;48.138;21.002;2023-03-22T04:40:12;99286.53;;;7.40;76.79
76126;BME280;65174;48.138;21.002;2023-03-22T04:43:44;99292.84;;;7.50;76.05
76126;BME280;65174;48.138;21.002;2023-03-22T04:46:51;99301.84;;;7.57;75.70
76126;BME280;65174;48.138;21.002;2023-03-22T04:49:53;99309.88;;;7.51;76.11
76126;BME280;65174;48.138;21.002;2023-03-22T04:52:55;99309.22;;;7.63;75.43
76126;BME280;65174;48.138;21.002;2023-03-22T04:55:59;99303.25;;;7.47;76.02
76126;BME280;65174;48.138;21.002;2023-03-22T04:59:04;99315.00;;;7.51;75.86
76126;BME280;65174;48.138;21.002;2023-03-22T05:02:07;99300.38;;;7.53;76.34
76126;BME280;65174;48.138;21.002;2023-03-22T05:05:15;99313.03;;;7.40;76.57
76126;BME280;65174;48.138;21.002;2023-03-22T05:08:20;99295.97;;;7.39;76.45
76126;BME280;65174;48.138;21.002;2023-03-22T05:11:23;99308.53;;;7.44;76.68
76126;BME280;65174;48.138;21.002;2023-03-22T05:14:51;99304.75;;;7.51;76.31
76126;BME280;65174;48.138;21.002;2023-03-22T05:17:58;99301.28;;;7.52;75.99
76126;BME280;65174;48.138;21.002;2023-03-22T05:21:00;99308.47;;;7.45;76.59
76126;BME280;65174;48.138;21.002;2023-03-22T05:24:05;99308.88;;;7.38;76.53
76126;BME280;65174;48.138;21.002;2023-03-22T05:27:08;99305.91;;;7.61;75.86
76126;BME280;65174;48.138;21.002;2023-03-22T05:30:12;99303.75;;;7.38;76.34
76126;BME280;65174;48.138;21.002;2023-03-22T05:33:28;99306.41;;;7.52;76.20
76126;BME280;65174;48.138;21.002;2023-03-22T05:36:31;99305.91;;;7.61;75.61
76126;BME280;65174;48.138;21.002;2023-03-22T05:40:03;99302.09;;;7.52;76.57
76126;BME280;65174;48.138;21.002;2023-03-22T05:43:12;99298.38;;;7.27;76.67
76126;BME280;65174;48.138;21.002;2023-03-22T05:46:19;99313.63;;;7.45;76.10
76126;BME280;65174;48.138;21.002;2023-03-22T05:49:44;99318.06;;;7.42;76.19
76126;BME280;65174;48.138;21.002;2023-03-22T05:52:48;99320.66;;;7.88;75.11
76126;BME280;65174;48.138;21.002;2023-03-22T05:56:06;99324.94;;;7.88;74.76
76126;BME280;65174;48.138;21.002;2023-03-22T05:59:12;99324.00;;;8.04;73.95
76126;BME280;65174;48.138;21.002;2023-03-22T06:02:14;99322.56;;;8.46;73.35
76126;BME280;65174;48.138;21.002;2023-03-22T06:05:17;99331.47;;;8.25;73.51
76126;BME280;65174;48.138;21.002;2023-03-22T06:08:23;99328.56;;;8.60;72.86
76126;BME280;65174;48.138;21.002;2023-03-22T06:11:27;99329.06;;;8.81;72.57
76126;BME280;65174;48.138;21.002;2023-03-22T06:14:31;99334.22;;;9.09;71.21
76126;BME280;65174;48.138;21.002;2023-03-22T06:17:44;99341.59;;;9.15;71.15
76126;BME280;65174;48.138;21.002;2023-03-22T06:20:50;99343.50;;;9.54;70.04
76126;BME280;65174;48.138;21.002;2023-03-22T06:23:55;99338.69;;;9.62;69.25
76126;BME280;65174;48.138;21.002;2023-03-22T06:26:58;99343.88;;;10.03;68.73
76126;BME280;65174;48.138;21.002;2023-03-22T06:30:02;99350.03;;;10.00;68.03
76126;BME280;65174;48.138;21.002;2023-03-22T06:33:09;99352.91;;;9.96;68.38
76126;BME280;65174;48.138;21.002;2023-03-22T06:36:15;99360.38;;;9.86;68.51
76126;BME280;65174;48.138;21.002;2023-03-22T06:39:34;99362.63;;;10.05;67.78
76126;BME280;65174;48.138;21.002;2023-03-22T06:42:37;99370.84;;;10.11;67.06
76126;BME280;65174;48.138;21.002;2023-03-22T06:45:45;99374.34;;;9.96;68.59
76126;BME280;65174;48.138;21.002;2023-03-22T06:48:49;99375.50;;;9.64;69.89
76126;BME280;65174;48.138;21.002;2023-03-22T06:51:51;99370.91;;;9.27;70.59
76126;BME280;65174;48.138;21.002;2023-03-22T06:54:53;99388.72;;;9.02;71.36
76126;BME280;65174;48.138;21.002;2023-03-22T06:57:55;99379.16;;;9.04;71.58
76126;BME280;65174;48.138;21.002;2023-03-22T07:00:58;99379.19;;;9.32;71.53
76126;BME280;65174;48.138;21.002;2023-03-22T07:04:03;99371.91;;;8.96;71.73
76126;BME280;65174;48.138;21.002;2023-03-22T07:07:05;99388.66;;;9.31;71.28
76126;BME280;65174;48.138;21.002;2023-03-22T07:10:09;99386.19;;;9.30;70.29
76126;BME280;65174;48.138;21.002;2023-03-22T07:13:12;99388.63;;;9.59;68.95
76126;BME280;65174;48.138;21.002;2023-03-22T07:16:15;99388.28;;;9.80;68.57
76126;BME280;65174;48.138;21.002;2023-03-22T07:19:30;99390.53;;;9.98;68.83
76126;BME280;65174;48.138;21.002;2023-03-22T07:22:38;99390.50;;;10.39;66.59
76126;BME280;65174;48.138;21.002;2023-03-22T07:25:42;99392.13;;;10.54;65.24
76126;BME280;65174;48.138;21.002;2023-03-22T07:29:10;99398.00;;;10.95;65.42
76126;BME280;65174;48.138;21.002;2023-03-22T07:32:12;99406.81;;;10.79;65.43
76126;BME280;65174;48.138;21.002;2023-03-22T07:35:32;99408.53;;;10.53;65.92
76126;BME280;65174;48.138;21.002;2023-03-22T07:38:35;99412.91;;;10.65;65.51
76126;BME280;65174;48.138;21.002;2023-03-22T07:41:42;99404.84;;;10.57;65.63
76126;BME280;65174;48.138;21.002;2023-03-22T07:44:56;99394.00;;;10.65;65.81
76126;BME280;65174;48.138;21.002;2023-03-22T07:47:59;99400.69;;;11.19;64.75
76126;BME280;65174;48.138;21.002;2023-03-22T07:51:19;99397.72;;;11.99;63.03
76126;BME280;65174;48.138;21.002;2023-03-22T07:54:22;99409.94;;;11.97;61.25
76126;BME280;65174;48.138;21.002;2023-03-22T07:57:37;99407.81;;;11.78;62.36
76126;BME280;65174;48.138;21.002;2023-03-22T08:00:39;99410.66;;;11.99;60.61
76126;BME280;65174;48.138;21.002;2023-03-22T08:04:20;99409.03;;;11.98;61.23
76126;BME280;65174;48.138;21.002;2023-03-22T08:07:37;99403.84;;;11.98;61.02
76126;BME280;65174;48.138;21.002;2023-03-22T08:10:39;99411.84;;;11.57;62.39
76126;BME280;65174;48.138;21.002;2023-03-22T08:13:42;99405.31;;;11.89;61.70
76126;BME280;65174;48.138;21.002;2023-03-22T08:16:45;99404.34;;;12.03;60.97
76126;BME280;65174;48.138;21.002;2023-03-22T08:19:47;99392.53;;;12.35;60.26
76126;BME280;65174;48.138;21.002;2023-03-22T08:22:56;99398.69;;;12.69;58.78
76126;BME280;65174;48.138;21.002;2023-03-22T08:26:01;99406.34;;;13.05;57.04
76126;BME280;65174;48.138;21.002;2023-03-22T08:29:03;99405.00;;;13.45;55.64
76126;BME280;65174;48.138;21.002;2023-03-22T08:32:09;99410.16;;;13.34;53.20
76126;BME280;65174;48.138;21.002;2023-03-22T08:35:11;99404.53;;;13.40;53.49
76126;BME280;65174;48.138;21.002;2023-03-22T08:38:15;99410.91;;;13.70;51.92
76126;BME280;65174;48.138;21.002;2023-03-22T08:41:21;99401.09;;;13.51;53.47
76126;BME280;65174;48.138;21.002;2023-03-22T08:44:24;99415.34;;;14.01;51.33
76126;BME280;65174;48.138;21.002;2023-03-22T08:47:27;99414.38;;;14.13;48.77
76126;BME280;65174;48.138;21.002;2023-03-22T08:50:34;99411.34;;;13.97;49.18
76126;BME280;65174;48.138;21.002;2023-03-22T08:53:48;99413.59;;;13.68;50.54
76126;BME280;65174;48.138;21.002;2023-03-22T08:57:13;99416.75;;;13.94;48.31
76126;BME280;65174;48.138;21.002;2023-03-22T09:00:42;99417.94;;;13.90;51.02
76126;BME280;65174;48.138;21.002;2023-03-22T09:04:05;99413.16;;;14.39;50.83
76126;BME280;65174;48.138;21.002;2023-03-22T09:07:11;99403.47;;;14.41;49.25
76126;BME280;65174;48.138;21.002;2023-03-22T09:10:15;99413.06;;;14.18;48.91
76126;BME280;65174;48.138;21.002;2023-03-22T09:13:20;99398.81;;;14.02;49.70
76126;BME280;65174;48.138;21.002;2023-03-22T09:16:34;99400.94;;;14.08;48.54
76126;BME280;65174;48.138;21.002;2023-03-22T09:19:36;99402.25;;;13.91;49.34
76126;BME280;65174;48.138;21.002;2023-03-22T09:22:39;99403.66;;;13.95;48.85
76126;BME280;65174;48.138;21.002;2023-03-22T09:25:45;99390.25;;;14.76;47.76
76126;BME280;65174;48.138;21.002;2023-03-22T09:28:49;99391.91;;;14.97;48.00
76126;BME280;65174;48.138;21.002;2023-03-22T09:31:52;99388.16;;;14.90;44.93
76126;BME280;65174;48.138;21.002;2023-03-22T09:35:02;99391.47;;;14.72;45.84
76126;BME280;65174;48.138;21.002;2023-03-22T09:38:12;99384.56;;;14.82;45.86
76126;BME280;65174;48.138;21.002;2023-03-22T09:41:22;99381.03;;;14.83;44.89
76126;BME280;65174;48.138;21.002;2023-03-22T09:44:35;99391.03;;;15.08;44.44
76126;BME280;65174;48.138;21.002;2023-03-22T09:47:45;99397.53;;;14.61;44.41
76126;BME280;65174;48.138;21.002;2023-03-22T09:50:51;99394.13;;;14.81;45.06
76126;BME280;65174;48.138;21.002;2023-03-22T09:53:54;99386.53;;;14.26;45.64
76126;BME280;65174;48.138;21.002;2023-03-22T09:57:01;99386.41;;;15.11;44.05
76126;BME280;65174;48.138;21.002;2023-03-22T10:06:48;99375.03;;;15.63;43.28
76126;BME280;65174;48.138;21.002;2023-03-22T10:10:19;99379.69;;;15.60;43.95
76126;BME280;65174;48.138;21.002;2023-03-22T10:13:33;99379.69;;;16.00;44.24
76126;BME280;65174;48.138;21.002;2023-03-22T10:16:37;99378.47;;;16.13;43.51
76126;BME280;65174;48.138;21.002;2023-03-22T10:19:53;99369.97;;;16.11;44.00
76126;BME280;65174;48.138;21.002;2023-03-22T10:22:58;99375.47;;;16.37;43.16
76126;BME280;65174;48.138;21.002;2023-03-22T10:26:03;99363.84;;;16.31;41.91
76126;BME280;65174;48.138;21.002;2023-03-22T10:29:14;99364.13;;;16.57;44.64
76126;BME280;65174;48.138;21.002;2023-03-22T10:32:35;99366.31;;;16.81;40.77
76126;BME280;65174;48.138;21.002;2023-03-22T10:35:57;99362.31;;;16.86;40.92
76126;BME280;65174;48.138;21.002;2023-03-22T10:39:10;99356.75;;;16.62;44.71
76126;BME280;65174;48.138;21.002;2023-03-22T10:42:27;99354.81;;;16.83;44.13
76126;BME280;65174;48.138;21.002;2023-03-22T10:45:33;99351.81;;;17.24;42.13
76126;BME280;65174;48.138;21.002;2023-03-22T10:48:38;99344.16;;;17.23;39.69
76126;BME280;65174;48.138;21.002;2023-03-22T10:51:47;99361.41;;;16.78;42.31
76126;BME280;65174;48.138;21.002;2023-03-22T10:54:50;99352.88;;;16.85;42.09
76126;BME280;65174;48.138;21.002;2023-03-22T10:58:15;99347.22;;;17.09;41.72
76126;BME280;65174;48.138;21.002;2023-03-22T11:01:31;99355.75;;;16.82;40.22
76126;BME280;65174;48.138;21.002;2023-03-22T11:04:36;99352.47;;;16.90;40.56
76126;BME280;65174;48.138;21.002;2023-03-22T11:07:43;99346.72;;;16.77;40.58
76126;BME280;65174;48.138;21.002;2023-03-22T11:10:49;99332.59;;;16.31;38.90
76126;BME280;65174;48.138;21.002;2023-03-22T11:20:14;99313.59;;;17.15;39.48
76126;BME280;65174;48.138;21.002;2023-03-22T11:23:19;99321.25;;;17.54;37.58
76126;BME280;65174;48.138;21.002;2023-03-22T11:26:28;99311.22;;;17.59;37.05
76126;BME280;65174;48.138;21.002;2023-03-22T11:29:47;99317.41;;;17.48;38.50
76126;BME280;65174;48.138;21.002;2023-03-22T11:33:20;99305.56;;;17.26;37.49
76126;BME280;65174;48.138;21.002;2023-03-22T11:36:22;99301.38;;;17.43;37.79
76126;BME280;65174;48.138;21.002;2023-03-22T11:39:26;99298.53;;;17.00;39.43
76126;BME280;65174;48.138;21.002;2023-03-22T11:42:32;99292.44;;;17.18;38.76
76126;BME280;65174;48.138;21.002;2023-03-22T11:45:36;99293.97;;;16.46;39.05
76126;BME280;65174;48.138;21.002;2023-03-22T11:48:44;99287.00;;;17.02;39.42
76126;BME280;65174;48.138;21.002;2023-03-22T11:51:47;99284.00;;;17.34;38.20
76126;BME280;65174;48.138;21.002;2023-03-22T11:54:50;99278.47;;;17.37;38.19
76126;BME280;65174;48.138;21.002;2023-03-22T11:57:56;99284.72;;;17.63;36.62
76126;BME280;65174;48.138;21.002;2023-03-22T12:01:01;99275.63;;;17.67;36.23
76126;BME280;65174;48.138;21.002;2023-03-22T12:04:08;99283.03;;;18.07;36.91
76126;BME280;65174;48.138;21.002;2023-03-22T12:07:15;99281.69;;;18.03;35.69
76126;BME280;65174;48.138;21.002;2023-03-22T12:10:27;99268.94;;;17.82;37.51
76126;BME280;65174;48.138;21.002;2023-03-22T12:13:44;99275.84;;;17.91;37.39
76126;BME280;65174;48.138;21.002;2023-03-22T12:17:31;99271.91;;;18.05;37.66
76126;BME280;65174;48.138;21.002;2023-03-22T12:20:42;99273.88;;;17.58;37.42
76126;BME280;65174;48.138;21.002;2023-03-22T12:23:48;99273.19;;;18.01;39.31
76126;BME280;65174;48.138;21.002;2023-03-22T12:26:53;99274.16;;;18.00;36.62
76126;BME280;65174;48.138;21.002;2023-03-22T12:30:04;99276.25;;;17.15;38.23
76126;BME280;65174;48.138;21.002;2023-03-22T12:33:22;99268.34;;;17.88;37.24
76126;BME280;65174;48.138;21.002;2023-03-22T12:36:34;99268.47;;;17.69;35.92
76126;BME280;65174;48.138;21.002;2023-03-22T12:39:44;99271.66;;;17.63;37.35
76126;BME280;65174;48.138;21.002;2023-03-22T12:43:16;99272.16;;;17.39;38.60
76126;BME280;65174;48.138;21.002;2023-03-22T12:46:25;99271.59;;;17.45;38.34
76126;BME280;65174;48.138;21.002;2023-03-22T12:49:35;99272.16;;;17.39;37.57
76126;BME280;65174;48.138;21.002;2023-03-22T12:52:45;99263.47;;;17.48;37.37
76126;BME280;65174;48.138;21.002;2023-03-22T12:55:48;99269.13;;;17.44;38.25
76126;BME280;65174;48.138;21.002;2023-03-22T12:58:58;99261.88;;;17.11;37.99
76126;BME280;65174;48.138;21.002;2023-03-22T13:02:24;99269.97;;;17.44;37.86
76126;BME280;65174;48.138;21.002;2023-03-22T13:05:32;99271.66;;;17.36;37.39
76126;BME280;65174;48.138;21.002;2023-03-22T13:15:38;99266.63;;;17.52;38.44
76126;BME280;65174;48.138;21.002;2023-03-22T13:21:47;99261.16;;;17.55;39.92
76126;BME280;65174;48.138;21.002;2023-03-22T13:28:03;99244.41;;;17.93;40.37
76126;BME280;65174;48.138;21.002;2023-03-22T13:31:35;99247.72;;;18.20;40.65
76126;BME280;65174;48.138;21.002;2023-03-22T13:34:44;99248.34;;;18.14;39.33
76126;BME280;65174;48.138;21.002;2023-03-22T13:37:48;99251.31;;;18.19;38.59
76126;BME280;65174;48.138;21.002;2023-03-22T13:43:59;99242.97;;;17.81;40.17
76126;BME280;65174;48.138;21.002;2023-03-22T13:47:03;99251.56;;;17.91;41.71
76126;BME280;65174;48.138;21.002;2023-03-22T13:50:32;99246.38;;;18.16;40.50
76126;BME280;65174;48.138;21.002;2023-03-22T13:53:36;99232.44;;;18.43;40.43
76126;BME280;65174;48.138;21.002;2023-03-22T14:00:03;99236.63;;;17.83;40.08
76126;BME280;65174;48.138;21.002;2023-03-22T14:03:25;99234.00;;;18.18;40.49
76126;BME280;65174;48.138;21.002;2023-03-22T14:06:34;99226.78;;;18.30;40.23
76126;BME280;65174;48.138;21.002;2023-03-22T14:09:45;99225.66;;;17.97;39.40
76126;BME280;65174;48.138;21.002;2023-03-22T14:12:51;99235.59;;;17.94;39.84
76126;BME280;65174;48.138;21.002;2023-03-22T14:16:01;99230.16;;;17.87;39.59
76126;BME280;65174;48.138;21.002;2023-03-22T14:19:07;99227.09;;;18.09;40.52
76126;BME280;65174;48.138;21.002;2023-03-22T14:22:15;99222.00;;;18.25;41.38
76126;BME280;65174;48.138;21.002;2023-03-22T14:25:22;99212.03;;;18.03;40.16
76126;BME280;65174;48.138;21.002;2023-03-22T14:28:34;99219.41;;;17.55;40.61
76126;BME280;65174;48.138;21.002;2023-03-22T14:31:36;99211.13;;;17.77;40.98
76126;BME280;65174;48.138;21.002;2023-03-22T14:34:38;99210.41;;;17.40;41.01
76126;BME280;65174;48.138;21.002;2023-03-22T14:37:41;99215.53;;;17.32;42.22
76126;BME280;65174;48.138;21.002;2023-03-22T14:40:44;99202.88;;;17.10;41.92
76126;BME280;65174;48.138;21.002;2023-03-22T14:43:47;99194.94;;;16.75;42.37
76126;BME280;65174;48.138;21.002;2023-03-22T14:46:49;99189.09;;;16.63;43.08
76126;BME280;65174;48.138;21.002;2023-03-22T14:49:53;99209.69;;;16.37;43.43
76126;BME280;65174;48.138;21.002;2023-03-22T14:52:55;99198.84;;;16.51;43.33
76126;BME280;65174;48.138;21.002;2023-03-22T14:55:56;99196.78;;;16.55;43.45
76126;BME280;65174;48.138;21.002;2023-03-22T14:59:00;99205.72;;;16.52;43.56
76126;BME280;65174;48.138;21.002;2023-03-22T15:02:16;99198.28;;;16.57;43.69
76126;BME280;65174;48.138;21.002;2023-03-22T15:05:21;99191.09;;;16.13;44.31
76126;BME280;65174;48.138;21.002;2023-03-22T15:08:24;99181.34;;;16.15;44.22
76126;BME280;65174;48.138;21.002;2023-03-22T15:11:26;99192.53;;;16.44;44.49
76126;BME280;65174;48.138;21.002;2023-03-22T15:14:29;99197.03;;;16.61;43.58
76126;BME280;65174;48.138;21.002;2023-03-22T15:17:33;99178.34;;;16.20;44.90
76126;BME280;65174;48.138;21.002;2023-03-22T15:20:37;99197.91;;;16.33;44.70
76126;BME280;65174;48.138;21.002;2023-03-22T15:23:53;99192.75;;;16.70;44.29
76126;BME280;65174;48.138;21.002;2023-03-22T15:26:54;99187.19;;;16.55;43.59
76126;BME280;65174;48.138;21.002;2023-03-22T15:29:57;99179.72;;;16.80;43.25
76126;BME280;65174;48.138;21.002;2023-03-22T15:33:07;99182.25;;;16.62;43.55
76126;BME280;65174;48.138;21.002;2023-03-22T15:36:15;99173.00;;;16.77;42.79
76126;BME280;65174;48.138;21.002;2023-03-22T15:42:28;99179.25;;;16.47;44.06
76126;BME280;65174;48.138;21.002;2023-03-22T15:46:04;99165.13;;;16.40;44.66
76126;BME280;65174;48.138;21.002;2023-03-22T15:49:37;99177.09;;;16.33;45.13
76126;BME280;65174;48.138;21.002;2023-03-22T15:52:50;99175.16;;;16.26;45.64
76126;BME280;65174;48.138;21.002;2023-03-22T15:55:51;99183.84;;;16.07;45.29
76126;BME280;65174;48.138;21.002;2023-03-22T15:58:58;99177.56;;;15.90;45.83
76126;BME280;65174;48.138;21.002;2023-03-22T16:02:11;99176.72;;;15.71;46.69
76126;BME280;65174;48.138;21.002;2023-03-22T16:05:13;99181.78;;;15.53;47.13
76126;BME280;65174;48.138;21.002;2023-03-22T16:08:14;99191.72;;;15.39;47.27
76126;BME280;65174;48.138;21.002;2023-03-22T16:11:16;99181.91;;;15.02;48.54
76126;BME280;65174;48.138;21.002;2023-03-22T16:14:19;99187.66;;;15.06;48.28
76126;BME280;65174;48.138;21.002;2023-03-22T16:17:24;99184.66;;;15.01;48.65
76126;BME280;65174;48.138;21.002;2023-03-22T16:20:26;99180.81;;;14.95;48.75
76126;BME280;65174;48.138;21.002;2023-03-22T16:23:33;99184.44;;;14.83;49.14
76126;BME280;65174;48.138;21.002;2023-03-22T16:26:34;99186.19;;;14.73;49.13
76126;BME280;65174;48.138;21.002;2023-03-22T16:29:35;99187.53;;;14.68;48.76
76126;BME280;65174;48.138;21.002;2023-03-22T16:32:36;99179.44;;;14.61;49.14
76126;BME280;65174;48.138;21.002;2023-03-22T16:35:37;99178.81;;;14.48;49.77
76126;BME280;65174;48.138;21.002;2023-03-22T16:38:39;99186.88;;;14.45;49.73
76126;BME280;65174;48.138;21.002;2023-03-22T16:41:40;99185.59;;;14.19;50.30
76126;BME280;65174;48.138;21.002;2023-03-22T16:44:42;99192.81;;;14.15;50.68
76126;BME280;65174;48.138;21.002;2023-03-22T16:47:44;99193.63;;;14.16;50.81
76126;BME280;65174;48.138;21.002;2023-03-22T16:50:45;99191.66;;;14.08;50.56
76126;BME280;65174;48.138;21.002;2023-03-22T16:53:49;99183.31;;;13.84;51.41
76126;BME280;65174;48.138;21.002;2023-03-22T16:56:50;99183.47;;;13.72;51.77
76126;BME280;65174;48.138;21.002;2023-03-22T16:59:51;99188.69;;;13.61;52.52
76126;BME280;65174;48.138;21.002;2023-03-22T17:03:14;99191.06;;;13.52;52.70
76126;BME280;65174;48.138;21.002;2023-03-22T17:06:52;99189.06;;;13.45;53.11
76126;BME280;65174;48.138;21.002;2023-03-22T17:09:54;99194.72;;;13.50;52.88
76126;BME280;65174;48.138;21.002;2023-03-22T17:12:56;99195.44;;;13.52;52.97
76126;BME280;65174;48.138;21.002;2023-03-22T17:15:57;99205.06;;;13.61;52.72
76126;BME280;65174;48.138;21.002;2023-03-22T17:18:58;99199.69;;;13.53;52.63
76126;BME280;65174;48.138;21.002;2023-03-22T17:22:20;99200.28;;;13.45;53.01
76126;BME280;65174;48.138;21.002;2023-03-22T17:26:09;99209.25;;;13.30;53.23
76126;BME280;65174;48.138;21.002;2023-03-22T17:29:11;99199.59;;;13.32;52.95
76126;BME280;65174;48.138;21.002;2023-03-22T17:32:13;99217.03;;;13.30;53.35
76126;BME280;65174;48.138;21.002;2023-03-22T17:35:17;99217.06;;;13.19;53.42
76126;BME280;65174;48.138;21.002;2023-03-22T17:38:19;99209.25;;;12.97;53.90
76126;BME280;65174;48.138;21.002;2023-03-22T17:41:23;99216.09;;;13.20;53.92
76126;BME280;65174;48.138;21.002;2023-03-22T17:44:24;99209.94;;;13.32;53.41
76126;BME280;65174;48.138;21.002;2023-03-22T17:47:25;99215.75;;;13.25;53.52